Darby, MT

11:18 AM MDT on August 27, 2014 (GMT -0600)
Lemhi County | Change Station
CLOSE
Current Station
Airport
Location: Salmon,
Elevation: 4045 ft
Nearby Weather Stations

Elev 4045 ft 45.12 °N, 113.88 °W | Updated 3 minutes ago

Clear
Clear
63 °F
Feels Like 63 °F
N
0
Wind Variable Wind from North

Today
High -- | Low -- °F
--% Chance of Precip.
Yesterday
High -- | Low -- °F
Precip. -- in
6:51 AM 8:24 PM
Waxing Crescent, 4% visible
Pressure 30.21 in
Visibility 10.0 miles
Clouds Clear
Dew Point 48 °F
Humidity 59%
Rainfall 0.00 in
Snow Depth 0 in
UV 6 out of 12
Pollen 8.10 out of 12
Air Quality Not available.
Flu Activity Not available.
METAR KSMN 271715Z AUTO 00000KT 10SM CLR 17/09 A3021 RMK AO1

More Conditions Fewer Conditions

Pressure 30.21 in
Visibility 10.0 miles
Clouds Clear
Dew Point 48 °F
Humidity 59%
Rainfall 0.00 in
Snow Depth 0 in
UV 6 out of 12
Pollen 8.10 out of 12
Air Quality Not available.
Flu Activity Not available.
METAR KSMN 271715Z AUTO 00000KT 10SM CLR 17/09 A3021 RMK AO1

More Conditions Fewer Conditions

10-Day Weather Forecast

Almanac

Astronomy

Aug. 27, 2014 Rise Set
Actual Time 6:51 AM MDT 8:24 PM MDT
Civil Twilight 6:19 AM MDT 8:55 PM MDT
Nautical Twilight 5:41 AM MDT 9:33 PM MDT
Astronomical Twilight 5:00 AM MDT 10:14 PM MDT
Moon 9:00 AM MDT 9:08 PM MDT
Length of Visible Light 14h 35m
Length of Day
13h 32m
Tomorrow will be 3m 5s shorter.
Waxing Crescent, 4% of the Moon is Illuminated
Today
Waxing Crescent
Sep 2
First Quarter
Sep 8
Full
Sep 15
Last Quarter
Sep 24
New

Today's Extremes

State Highs State Lows

Community

WunderPhotos

Upload Photos

1,747,728 photos uploaded!

Nearby

Snow Depth

Station Depth Elevation
Twelvemile Creek 0 in 5600 ft
Daly Creek 0 in 5780 ft
Saddle Mountain 0 in 7900 ft
Nez Perce Camp 1 in 5650 ft
Peterson Meadows 0 in 7200 ft

Earthquake Activity

City Distance Mag. Time & Date
No recent earthquake activity has been reported nearby.
Minimum magnitude displayed is 2.5.

Coastal Water Temperatures

Place Temperature
No Stations Reporting

Nearby Weather Stations